Bookmark and Share
Track history (hours):
 

Coastal Nomad

More information available from US FCC via Universal Licensing System and Coast Guard Vessel Documentation Center.

Last reported at 2014-Apr-06 23:34 UTC. Time now 2014-Apr-16 07:43 UTC.
Position N 54°34' W 130°44'.
Warning: this ship's position is 9 days out of date.

Length 74 m; draft 4 m.

Type: Cargo ship. MMSI: 303683000.

NotesDate/timePositionNaut miles runAvg speedWind from/ knotsBaromVisibWave heightAir tempDewpointWater temp
2014-Apr-06 23:34N 54°34' W 130°44'1312.5
2014-Apr-06 22:33N 54°22' W 130°37'1313.0
2014-Apr-06 21:33N 54°11' W 130°27'20811.3
2014-Apr-06 03:11N 51°04' W 127°56'711.7
2014-Apr-06 02:34N 50°59' W 127°47'1111.1
2014-Apr-06 01:33N 50°52' W 127°33'1211.5
2014-Apr-06 00:33N 50°47' W 127°16'1211.7
2014-Apr-05 23:32N 50°43' W 126°59'1211.5
2014-Apr-05 22:32N 50°36' W 126°44'1211.2
2014-Apr-05 21:28N 50°30' W 126°28'4312.8
2014-Apr-05 18:08N 50°17' W 125°24'1012.6
2014-Apr-05 17:19N 50°07' W 125°20'911.8
2014-Apr-05 16:33N 49°60' W 125°12'1312.6
2014-Apr-05 15:33N 49°52' W 124°57'1212.3
2014-Apr-05 14:33N 49°44' W 124°42'1312.7
2014-Apr-05 13:33N 49°36' W 124°26'1212.0
2014-Apr-05 12:33N 49°30' W 124°11'1312.6
2014-Apr-05 11:33N 49°22' W 123°56'1211.9
2014-Apr-05 10:33N 49°15' W 123°41'1212.0
2014-Apr-05 09:33N 49°07' W 123°27'1211.7
2014-Apr-05 08:33N 48°60' W 123°13'1212.0
2014-Apr-05 07:33N 48°52' W 122°60'1212.3
2014-Apr-05 06:34N 48°44' W 122°45'1212.3
2014-Apr-05 05:33N 48°32' W 122°45'1312.8
2014-Apr-05 04:33N 48°19' W 122°46'10 9.6
2014-Apr-05 03:30N 48°09' W 122°42'8 8.8
2014-Apr-05 02:33N 48°01' W 122°37'10 9.8
2014-Apr-05 01:34N 47°54' W 122°28'1212.1
2014-Apr-05 00:33N 47°42' W 122°26'3 2.5
2014-Apr-04 23:34N 47°40' W 122°23'1 0.5
2014-Apr-04 22:33N 47°39' W 122°22'0 0.0
2014-Apr-04 21:33N 47°39' W 122°22'0 0.0
2014-Apr-04 20:33N 47°39' W 122°22'0 0.0
2014-Apr-04 19:33N 47°39' W 122°22'0 0.0
2014-Apr-04 18:33N 47°39' W 122°22'0 0.0
2014-Apr-04 17:32N 47°39' W 122°22'0 0.0
2014-Apr-04 16:33N 47°39' W 122°22'0 0.0
2014-Apr-04 15:33N 47°39' W 122°22'0 0.0
2014-Apr-04 14:33N 47°39' W 122°22'0 0.0
2014-Apr-04 13:33N 47°39' W 122°22'0 0.0
2014-Apr-04 12:33N 47°39' W 122°22'0 0.0
2014-Apr-04 11:33N 47°39' W 122°22'0 0.0
2014-Apr-04 10:33N 47°39' W 122°22'0 0.0
2014-Apr-04 09:34N 47°39' W 122°22'0 0.0
2014-Apr-04 08:33N 47°39' W 122°22'0 0.0
2014-Apr-04 07:33N 47°39' W 122°22'0 0.0
2014-Apr-04 06:33N 47°39' W 122°22'0 0.0
2014-Apr-04 05:34N 47°39' W 122°22'0 0.0
2014-Apr-04 04:33N 47°39' W 122°22'0 0.0
2014-Apr-04 03:34N 47°39' W 122°22'0 0.0
2014-Apr-04 02:33N 47°39' W 122°22'0 0.0
2014-Apr-04 01:33N 47°39' W 122°22'0 0.0
2014-Apr-04 00:33N 47°39' W 122°22'0 0.0
2014-Apr-03 23:33N 47°39' W 122°22'0 0.0
2014-Apr-03 22:33N 47°39' W 122°22'0 0.0
2014-Apr-03 21:32N 47°39' W 122°22'0 0.0
2014-Apr-03 20:33N 47°39' W 122°22'0 0.0
2014-Apr-03 19:33N 47°39' W 122°22'0 0.0
2014-Apr-03 18:33N 47°39' W 122°22'0 0.0
2014-Apr-03 17:33N 47°39' W 122°22'0 0.0
2014-Apr-03 16:33N 47°39' W 122°22'0 0.0
2014-Apr-03 15:33N 47°39' W 122°22'0 0.0
2014-Apr-03 14:33N 47°39' W 122°22'0 0.0
2014-Apr-03 13:33N 47°39' W 122°22'0 0.0
2014-Apr-03 12:33N 47°39' W 122°22'0 0.0
2014-Apr-03 11:34N 47°39' W 122°22'0 0.0
2014-Apr-03 10:33N 47°39' W 122°22'0 0.0
2014-Apr-03 09:33N 47°39' W 122°22'0 0.0
2014-Apr-03 08:33N 47°39' W 122°22'0 0.0
2014-Apr-03 07:33N 47°39' W 122°22'0 0.0
2014-Apr-03 06:34N 47°39' W 122°22'0 0.0
2014-Apr-03 05:33N 47°39' W 122°22'0 0.0
2014-Apr-03 04:33N 47°39' W 122°22'0 0.0
2014-Apr-03 03:33N 47°39' W 122°22'0 0.0
2014-Apr-03 02:33N 47°39' W 122°22'0 0.0
2014-Apr-03 01:33N 47°39' W 122°22'0 0.0
2014-Apr-03 00:33N 47°39' W 122°22'0 0.0
2014-Apr-02 23:33N 47°39' W 122°22'0 0.0
2014-Apr-02 22:33N 47°39' W 122°22'0 0.0
2014-Apr-02 21:33N 47°39' W 122°22'0 0.0
2014-Apr-02 20:33N 47°39' W 122°22'0 0.0
2014-Apr-02 19:33N 47°39' W 122°22'0 0.0
2014-Apr-02 18:34N 47°39' W 122°22'0 0.0
2014-Apr-02 18:09N 47°39' W 122°22'0 0.0
2014-Apr-02 17:34N 47°39' W 122°22'0 0.0
2014-Apr-02 17:33N 47°39' W 122°22'0 0.0
2014-Apr-02 16:33N 47°39' W 122°22'0 0.0
2014-Apr-02 16:29N 47°39' W 122°22'0 0.0
2014-Apr-02 15:33N 47°39' W 122°22'0 0.0
2014-Apr-02 15:24N 47°39' W 122°22'0 0.0
2014-Apr-02 14:33N 47°39' W 122°22'0 0.0
2014-Apr-02 14:29N 47°39' W 122°22'0 0.0
2014-Apr-02 13:33N 47°39' W 122°22'0 0.0
2014-Apr-02 13:24N 47°39' W 122°22'0 0.0
2014-Apr-02 12:33N 47°39' W 122°22'0 0.0
2014-Apr-02 12:29N 47°39' W 122°22'0 0.0
2014-Apr-02 11:33N 47°39' W 122°22'0 0.0
2014-Apr-02 11:28N 47°39' W 122°22'0 0.0
2014-Apr-02 10:34N 47°39' W 122°22'0 0.0
2014-Apr-02 10:33N 47°39' W 122°22'0 0.0
2014-Apr-02 09:33N 47°39' W 122°22'0 0.0
2014-Apr-02 09:23N 47°39' W 122°22'0 0.0
2014-Apr-02 08:33N 47°39' W 122°22'0 0.0
2014-Apr-02 08:33N 47°39' W 122°22'0 0.0
2014-Apr-02 07:33N 47°39' W 122°22'0 0.0
2014-Apr-02 07:33N 47°39' W 122°22'0 0.0
2014-Apr-02 06:33N 47°39' W 122°22'0 0.0
2014-Apr-02 06:33N 47°39' W 122°22'0 0.0
2014-Apr-02 05:33N 47°39' W 122°22'0 0.0
2014-Apr-02 05:33N 47°39' W 122°22'0 0.0
2014-Apr-02 04:33N 47°39' W 122°22'0 0.0
2014-Apr-02 04:33N 47°39' W 122°22'0 0.0
2014-Apr-02 03:33N 47°39' W 122°22'0 0.0
2014-Apr-02 03:33N 47°39' W 122°22'0 0.0
2014-Apr-02 02:33N 47°39' W 122°22'0 0.0
2014-Apr-02 02:33N 47°39' W 122°22'0 0.0
2014-Apr-02 01:33N 47°39' W 122°22'0 0.0
2014-Apr-02 01:33N 47°39' W 122°22'0 0.0
2014-Apr-02 00:33N 47°39' W 122°22'0 0.0
2014-Apr-02 00:33N 47°39' W 122°22'0 0.0
2014-Apr-01 23:33N 47°39' W 122°22'0 0.0
2014-Apr-01 23:33N 47°39' W 122°22'0 0.0
2014-Apr-01 22:33N 47°39' W 122°22'0 0.0
2014-Apr-01 22:32N 47°39' W 122°22'0 0.0
2014-Apr-01 21:33N 47°39' W 122°22'0 0.0
2014-Apr-01 21:31N 47°39' W 122°22'0 0.0
2014-Apr-01 20:33N 47°39' W 122°22'0 0.0
2014-Apr-01 20:32N 47°39' W 122°22'0 0.0
2014-Apr-01 19:33N 47°39' W 122°22'0 0.0
2014-Apr-01 19:31N 47°39' W 122°22'0 0.0
2014-Apr-01 18:33N 47°39' W 122°22'0 0.0
2014-Apr-01 18:32N 47°39' W 122°22'0 0.0
2014-Apr-01 17:33N 47°39' W 122°22'0 0.0
2014-Apr-01 17:30N 47°39' W 122°22'0 0.0
2014-Apr-01 16:34N 47°39' W 122°22'0 0.0
2014-Apr-01 16:30N 47°39' W 122°22'0 0.0
2014-Apr-01 15:33N 47°39' W 122°22'0 0.0
2014-Apr-01 15:29N 47°39' W 122°22'0 0.0
2014-Apr-01 14:33N 47°39' W 122°22'0 0.0
2014-Apr-01 14:29N 47°39' W 122°22'0 0.0
2014-Apr-01 13:33N 47°39' W 122°22'0 0.0
2014-Apr-01 13:29N 47°39' W 122°22'0 0.0
2014-Apr-01 12:33N 47°39' W 122°22'0 0.0
2014-Apr-01 12:28N 47°39' W 122°22'0 0.0
2014-Apr-01 11:33N 47°39' W 122°22'0 0.0
2014-Apr-01 11:29N 47°39' W 122°22'0 0.0
2014-Apr-01 10:34N 47°39' W 122°22'0 0.0
2014-Apr-01 10:29N 47°39' W 122°22'0 0.0
2014-Apr-01 09:34N 47°39' W 122°22'0 0.0
2014-Apr-01 09:29N 47°39' W 122°22'0 0.0
2014-Apr-01 08:33N 47°39' W 122°22'0 0.0
2014-Apr-01 08:29N 47°39' W 122°22'0 0.0
2014-Apr-01 07:33N 47°39' W 122°22'0 0.0
2014-Apr-01 07:29N 47°39' W 122°22'0 0.0
2014-Apr-01 06:33N 47°39' W 122°22'0 0.0
2014-Apr-01 06:29N 47°39' W 122°22'0 0.0
2014-Apr-01 05:33N 47°39' W 122°22'0 0.0
2014-Apr-01 05:29N 47°39' W 122°22'0 0.0
2014-Apr-01 04:33N 47°39' W 122°22'0 0.0
2014-Apr-01 04:29N 47°39' W 122°22'0 0.0
2014-Apr-01 03:33N 47°39' W 122°22'0 0.0
2014-Apr-01 03:29N 47°39' W 122°22'0 0.0
2014-Apr-01 02:34N 47°39' W 122°22'0 0.0
2014-Apr-01 02:34N 47°39' W 122°22'0 0.0
2014-Apr-01 01:34N 47°39' W 122°22'0 0.0
2014-Apr-01 01:33N 47°39' W 122°22'0 0.0
2014-Apr-01 00:34N 47°39' W 122°22'0 0.0
2014-Apr-01 00:34N 47°39' W 122°22'0 0.0
2014-Mar-31 23:34N 47°39' W 122°22'0 0.0
2014-Mar-31 22:34N 47°39' W 122°22'0 0.0
2014-Mar-31 22:34N 47°39' W 122°22'0 0.0
2014-Mar-31 21:34N 47°39' W 122°22'0 0.0
2014-Mar-31 21:33N 47°39' W 122°22'0 0.0
2014-Mar-31 20:34N 47°39' W 122°22'0 0.0
2014-Mar-31 20:33N 47°39' W 122°22'0 0.0
2014-Mar-31 19:33N 47°39' W 122°22'0 0.0
2014-Mar-31 19:33N 47°39' W 122°22'0 0.0
2014-Mar-31 18:33N 47°39' W 122°22'0 0.0
2014-Mar-31 18:33N 47°39' W 122°22'0 0.0
2014-Mar-31 17:34N 47°39' W 122°22'0 0.0
2014-Mar-31 17:33N 47°39' W 122°22'0 0.0
2014-Mar-31 16:33N 47°39' W 122°22'0 0.0
2014-Mar-31 16:33N 47°39' W 122°22'0 0.0
2014-Mar-31 15:34N 47°39' W 122°22'0 0.0
2014-Mar-31 15:33N 47°39' W 122°22'0 0.0
2014-Mar-31 14:33N 47°39' W 122°22'0 0.0
2014-Mar-31 13:33N 47°39' W 122°22'0 0.0
2014-Mar-31 12:33N 47°39' W 122°22'0 0.0
2014-Mar-31 11:33N 47°39' W 122°22'0 0.0
2014-Mar-31 10:33N 47°39' W 122°22'0 0.0
2014-Mar-31 09:43N 47°39' W 122°22'0 0.0
2014-Mar-31 09:33N 47°39' W 122°22'0 0.0
2014-Mar-31 09:33N 47°39' W 122°22'0 0.0
2014-Mar-31 08:33N 47°39' W 122°22'0 0.0
2014-Mar-31 08:33N 47°39' W 122°22'0 0.0
2014-Mar-31 07:33N 47°39' W 122°22'0 0.0
2014-Mar-31 07:33N 47°39' W 122°22'0 0.0
2014-Mar-31 06:33N 47°39' W 122°22'0 0.0
2014-Mar-31 06:33N 47°39' W 122°22'1 1.1
2014-Mar-31 05:34N 47°40' W 122°24'0 0.5
2014-Mar-31 05:33N 47°40' W 122°24'2 2.5
2014-Mar-31 04:34N 47°38' W 122°23'0 0.0
2014-Mar-31 04:33N 47°38' W 122°23'0 0.0
2014-Mar-31 03:34N 47°38' W 122°23'0 0.0
2014-Mar-31 03:33N 47°38' W 122°23'0 0.0
2014-Mar-31 02:34N 47°38' W 122°23'0 0.0
2014-Mar-31 02:33N 47°38' W 122°23'0 0.0
2014-Mar-31 01:33N 47°38' W 122°23'0 0.0
2014-Mar-31 00:33N 47°38' W 122°23'0 0.0
2014-Mar-30 23:34N 47°38' W 122°23'0 0.0
2014-Mar-30 22:34N 47°38' W 122°23'0 0.0
2014-Mar-30 21:33N 47°38' W 122°23'0 0.0
2014-Mar-30 20:33N 47°38' W 122°23'0 0.0
2014-Mar-30 19:34N 47°38' W 122°23'0 2.0
2014-Mar-30 19:25N 47°37' W 122°23'7 8.2
2014-Mar-30 18:34N 47°44' W 122°27'110.4
2014-Mar-30 18:30N 47°44' W 122°27'1011.0
2014-Mar-30 17:34N 47°55' W 122°30'1 9.7
2014-Mar-30 17:30N 47°55' W 122°30'8 8.8
2014-Mar-30 16:33N 48°02' W 122°38'8 7.5
2014-Mar-30 15:32N 48°08' W 122°43'7 7.5
2014-Mar-30 14:33N 48°15' W 122°49'1211.7
2014-Mar-30 13:33N 48°26' W 122°45'1110.7
2014-Mar-30 12:33N 48°37' W 122°45'9 8.9
2014-Mar-30 11:33N 48°45' W 122°49'1010.3
2014-Mar-30 10:33N 48°50' W 123°02'1010.5
2014-Mar-30 09:33N 48°57' W 123°14'1110.7
2014-Mar-30 08:33N 49°04' W 123°27'1110.9
2014-Mar-30 07:34N 49°12' W 123°38'1111.2
2014-Mar-30 06:34N 49°19' W 123°51'1111.0
2014-Mar-30 05:34N 49°26' W 124°04'1110.5
2014-Mar-30 04:34N 49°32' W 124°18'1110.9
2014-Mar-30 03:33N 49°38' W 124°32'1110.6
2014-Mar-30 02:33N 49°44' W 124°45'1111.0
2014-Mar-30 01:34N 49°51' W 124°58'1111.0
2014-Mar-30 00:33N 49°59' W 125°11'1210.7
2014-Mar-29 23:24N 50°09' W 125°21'1110.1
2014-Mar-29 22:21N 50°19' W 125°25'49 9.9
2014-Mar-29 17:27N 50°31' W 126°39'910.3
2014-Mar-29 16:33N 50°38' W 126°49'1111.3
2014-Mar-29 15:33N 50°44' W 127°04'1110.9
2014-Mar-29 14:33N 50°48' W 127°20'1010.4
2014-Mar-29 13:34N 50°53' W 127°35'1010.2
2014-Mar-29 12:33N 50°59' W 127°48'  

Dump ship's entire track history

sailing weather and tide predictions

Coastal Nomad — WDC6439 — position and weather